createdAt,value
2023-01-08T00:01:14.988Z,37.27
2023-01-08T00:03:45.387Z,34.87
2023-01-08T00:06:17.951Z,35.20
2023-01-08T00:08:47.655Z,35.23
2023-01-08T00:11:24.323Z,32.50
2023-01-08T00:13:52.562Z,31.77
2023-01-08T00:16:21.731Z,32.30
2023-01-08T00:18:50.205Z,31.10
2023-01-08T00:21:21.157Z,33.97
2023-01-08T00:23:49.508Z,31.73
2023-01-08T00:26:20.384Z,30.73
2023-01-08T00:28:49.274Z,31.83
2023-01-08T00:31:18.794Z,32.03
2023-01-08T00:33:48.229Z,30.70
2023-01-08T00:36:26.315Z,32.47
2023-01-08T00:39:02.727Z,33.67
2023-01-08T00:41:30.320Z,33.00
2023-01-08T00:44:00.808Z,33.20
2023-01-08T00:46:30.455Z,33.80
2023-01-08T00:48:59.370Z,34.40
2023-01-08T00:51:29.763Z,34.43
2023-01-08T00:54:02.057Z,32.67
2023-01-08T00:56:29.524Z,33.50
2023-01-08T00:59:00.628Z,34.47
2023-01-08T01:01:29.228Z,33.30
2023-01-08T01:03:59.663Z,33.13
2023-01-08T01:06:27.293Z,34.67
2023-01-08T01:09:05.118Z,37.30
2023-01-08T01:11:32.374Z,35.80
2023-01-08T01:13:59.350Z,34.77
2023-01-08T01:16:26.688Z,35.40
2023-01-08T01:18:57.391Z,33.73
2023-01-08T01:21:30.641Z,35.90
2023-01-08T01:24:03.427Z,34.63
2023-01-08T01:26:32.132Z,38.90
2023-01-08T01:29:01.252Z,36.43
2023-01-08T01:31:31.370Z,35.10
2023-01-08T01:34:02.189Z,35.97
2023-01-08T01:36:32.356Z,33.97
2023-01-08T01:39:02.480Z,35.20
2023-01-08T01:41:33.231Z,35.87
2023-01-08T01:44:54.154Z,34.77
2023-01-08T01:47:30.669Z,34.03
2023-01-08T01:50:45.606Z,34.43
2023-01-08T01:53:27.294Z,35.23
2023-01-08T01:55:56.995Z,35.83
2023-01-08T01:58:29.741Z,35.03
2023-01-08T02:01:04.740Z,37.17
2023-01-08T02:03:40.123Z,35.53
2023-01-08T02:06:35.264Z,36.80
2023-01-08T02:09:23.293Z,37.10
2023-01-08T02:12:25.396Z,36.47
2023-01-08T02:15:23.457Z,36.53
2023-01-08T02:18:16.528Z,37.00
2023-01-08T02:20:54.565Z,38.17
2023-01-08T02:23:56.267Z,36.60
2023-01-08T02:26:34.493Z,36.43
2023-01-08T02:29:23.641Z,38.90
2023-01-08T02:31:52.337Z,37.10
2023-01-08T02:34:22.752Z,35.10
2023-01-08T02:36:59.684Z,35.47
2023-01-08T02:40:02.450Z,35.87
2023-01-08T02:42:49.608Z,38.53
2023-01-08T02:45:41.362Z,36.90
2023-01-08T02:48:29.842Z,36.47
2023-01-08T02:51:22.640Z,38.13
2023-01-08T02:54:06.516Z,37.20
2023-01-08T02:56:41.188Z,35.63
2023-01-08T02:59:15.890Z,34.73
2023-01-08T03:01:48.253Z,35.97
2023-01-08T03:04:21.392Z,34.53
2023-01-08T03:06:50.625Z,35.77
2023-01-08T03:09:21.674Z,35.23
2023-01-08T03:12:17.829Z,35.03
2023-01-08T03:14:52.730Z,35.30
2023-01-08T03:17:33.149Z,35.73
2023-01-08T03:20:06.806Z,36.83
2023-01-08T03:22:41.287Z,37.27
2023-01-08T03:25:10.280Z,35.23
2023-01-08T03:27:43.128Z,36.83
2023-01-08T03:30:11.746Z,35.70
2023-01-08T03:32:43.361Z,36.30
2023-01-08T03:35:20.797Z,37.27
2023-01-08T03:38:04.620Z,38.90
2023-01-08T03:40:42.460Z,36.93
2023-01-08T03:43:13.233Z,38.53
2023-01-08T03:45:47.792Z,37.33
2023-01-08T03:48:18.730Z,38.00
2023-01-08T03:50:48.921Z,37.13
2023-01-08T03:53:16.393Z,35.67
2023-01-08T03:55:47.966Z,34.30
2023-01-08T03:58:18.817Z,35.53
2023-01-08T04:00:48.307Z,34.83
2023-01-08T04:03:16.661Z,36.07
2023-01-08T04:05:48.368Z,36.17
2023-01-08T04:08:16.583Z,37.20
2023-01-08T04:10:45.016Z,36.30
2023-01-08T04:13:11.949Z,35.83
2023-01-08T04:15:41.970Z,35.07
2023-01-08T04:18:11.316Z,35.23
2023-01-08T04:20:41.693Z,34.10
2023-01-08T04:23:11.539Z,34.40
2023-01-08T04:25:42.098Z,35.47
2023-01-08T04:28:12.079Z,35.43
2023-01-08T04:30:42.680Z,36.03
2023-01-08T04:33:11.687Z,32.77
2023-01-08T04:35:49.114Z,32.70
2023-01-08T04:38:17.451Z,32.20
2023-01-08T04:40:47.115Z,30.17
2023-01-08T04:43:15.541Z,30.43
2023-01-08T04:45:48.524Z,30.97
2023-01-08T04:48:16.511Z,31.07
2023-01-08T04:50:47.422Z,30.13
2023-01-08T04:53:17.620Z,31.37
2023-01-08T04:55:47.941Z,33.67
2023-01-08T04:58:15.400Z,33.17
2023-01-08T05:00:42.589Z,31.17
2023-01-08T05:03:12.949Z,32.60
2023-01-08T05:05:44.098Z,31.67
2023-01-08T05:08:14.431Z,30.67
2023-01-08T05:10:44.674Z,29.20
2023-01-08T05:13:14.448Z,29.17
2023-01-08T05:15:43.946Z,29.67
2023-01-08T05:18:13.462Z,29.77
2023-01-08T05:20:50.043Z,29.53
2023-01-08T05:23:17.208Z,29.73
2023-01-08T05:25:44.268Z,28.77
2023-01-08T05:28:11.705Z,29.70
2023-01-08T05:30:39.307Z,29.40
2023-01-08T05:33:07.354Z,29.83
2023-01-08T05:35:34.458Z,30.20
2023-01-08T05:38:03.242Z,30.00
2023-01-08T05:40:33.718Z,30.50
2023-01-08T05:43:05.015Z,29.97
2023-01-08T05:45:33.637Z,30.23
2023-01-08T05:48:04.503Z,30.10
2023-01-08T05:50:34.168Z,30.40
2023-01-08T05:53:05.780Z,30.00
2023-01-08T05:55:37.297Z,28.73
2023-01-08T05:58:09.887Z,28.57
2023-01-08T06:00:42.637Z,26.50
2023-01-08T06:03:12.223Z,27.70
2023-01-08T06:05:41.612Z,28.73
2023-01-08T06:08:13.111Z,31.23
2023-01-08T06:10:42.731Z,30.23
2023-01-08T06:15:54.026Z,31.03
2023-01-08T06:18:20.990Z,30.83
2023-01-08T06:20:48.992Z,31.17
2023-01-08T06:23:19.577Z,30.30
2023-01-08T06:28:39.271Z,31.17
2023-01-08T06:31:07.705Z,30.63
2023-01-08T06:33:37.797Z,30.77
2023-01-08T06:36:06.220Z,31.87
2023-01-08T06:38:58.175Z,31.37
2023-01-08T06:41:28.566Z,31.77
2023-01-08T06:43:58.565Z,33.33
2023-01-08T06:46:29.312Z,34.00
2023-01-08T06:48:59.800Z,30.83
2023-01-08T06:51:28.031Z,31.50
2023-01-08T06:53:55.253Z,29.93
2023-01-08T06:56:24.558Z,31.40
2023-01-08T06:58:51.533Z,31.30
2023-01-08T07:01:23.661Z,31.23
2023-01-08T07:03:54.427Z,31.07
2023-01-08T07:06:24.734Z,33.00
2023-01-08T07:08:51.681Z,33.37
2023-01-08T07:11:23.229Z,32.27
2023-01-08T07:14:02.531Z,33.17
2023-01-08T07:16:33.177Z,33.17
2023-01-08T07:19:00.771Z,33.37
2023-01-08T07:21:31.425Z,31.20
2023-01-08T07:23:59.706Z,32.97
2023-01-08T07:26:26.807Z,33.17
2023-01-08T07:28:55.591Z,32.47
2023-01-08T07:31:25.138Z,33.60
2023-01-08T07:33:54.537Z,33.00
2023-01-08T07:36:23.067Z,31.47
2023-01-08T07:38:51.584Z,33.67
2023-01-08T07:41:21.594Z,36.27
2023-01-08T07:43:49.670Z,35.40
2023-01-08T07:46:17.293Z,34.10
2023-01-08T07:48:47.918Z,34.00
2023-01-08T07:51:17.449Z,32.90
2023-01-08T07:53:45.618Z,33.40
2023-01-08T07:56:13.637Z,32.47
2023-01-08T07:58:41.677Z,32.17
2023-01-08T08:01:11.325Z,32.53
2023-01-08T08:03:42.179Z,30.77
2023-01-08T08:06:12.120Z,30.80
2023-01-08T08:08:42.715Z,30.73
2023-01-08T08:11:21.070Z,29.80
2023-01-08T08:13:52.647Z,29.93
2023-01-08T08:16:21.299Z,31.10
2023-01-08T08:18:50.859Z,32.23
2023-01-08T08:21:18.186Z,30.90
2023-01-08T08:23:48.879Z,31.27
2023-01-08T08:26:20.719Z,30.53
2023-01-08T08:28:48.232Z,30.77
2023-01-08T08:31:18.657Z,29.93
2023-01-08T08:33:48.458Z,29.10
2023-01-08T08:36:17.908Z,27.60
2023-01-08T08:38:47.986Z,29.27
2023-01-08T08:43:59.221Z,28.27
2023-01-08T08:46:27.762Z,28.37
2023-01-08T08:48:55.257Z,26.53
2023-01-08T08:51:25.832Z,28.60
2023-01-08T08:53:54.204Z,27.90
2023-01-08T08:56:22.455Z,30.83
2023-01-08T08:58:59.435Z,30.00
2023-01-08T09:05:59.918Z,27.77
2023-01-08T09:08:28.210Z,27.27
2023-01-08T09:10:56.298Z,25.40
2023-01-08T09:13:24.537Z,25.87
2023-01-08T09:15:55.788Z,25.97
2023-01-08T09:18:24.137Z,24.60
2023-01-08T09:20:51.281Z,25.83
2023-01-08T09:23:21.789Z,25.47
2023-01-08T09:25:50.092Z,25.67
2023-01-08T09:28:17.392Z,26.07
2023-01-08T09:30:45.632Z,25.87
2023-01-08T09:33:16.892Z,25.03
2023-01-08T09:38:30.018Z,25.80
2023-01-08T09:41:09.261Z,25.67
2023-01-08T09:43:46.029Z,24.30
2023-01-08T09:46:17.680Z,25.07
2023-01-08T09:48:58.583Z,23.60
2023-01-08T09:51:36.490Z,24.90
2023-01-08T09:54:07.650Z,25.07
2023-01-08T09:56:47.554Z,23.67
2023-01-08T09:59:17.816Z,24.30
2023-01-08T10:01:47.196Z,23.80
2023-01-08T10:04:24.342Z,25.00
2023-01-08T10:07:32.307Z,24.40
2023-01-08T10:10:00.526Z,24.70
2023-01-08T10:12:36.415Z,25.40
2023-01-08T10:15:16.880Z,24.07
2023-01-08T10:18:05.944Z,24.77
2023-01-08T10:20:36.361Z,24.47
2023-01-08T10:23:18.127Z,25.03
2023-01-08T10:26:03.138Z,26.70
2023-01-08T10:28:35.667Z,26.40
2023-01-08T10:31:16.998Z,24.77
2023-01-08T10:33:51.152Z,24.53
2023-01-08T10:36:23.473Z,24.40
2023-01-08T10:39:00.180Z,23.80
2023-01-08T10:41:28.154Z,24.33
2023-01-08T10:44:06.205Z,25.23
2023-01-08T10:46:48.346Z,23.90
2023-01-08T10:49:33.213Z,24.57
2023-01-08T10:52:01.534Z,23.43
2023-01-08T10:54:40.858Z,23.87
2023-01-08T10:57:28.351Z,24.17
2023-01-08T10:59:56.793Z,23.57
2023-01-08T11:02:38.109Z,22.57
2023-01-08T11:05:11.841Z,22.00
2023-01-08T11:07:40.759Z,24.03
2023-01-08T11:10:26.518Z,20.43
2023-01-08T11:12:59.615Z,21.23
2023-01-08T11:15:32.978Z,21.03
2023-01-08T11:18:18.351Z,20.47
2023-01-08T11:20:47.738Z,21.13
2023-01-08T11:23:26.281Z,20.40
2023-01-08T11:26:20.653Z,19.30
2023-01-08T11:29:26.822Z,19.27
2023-01-08T11:32:18.277Z,20.10
2023-01-08T11:35:06.721Z,20.23
2023-01-08T11:37:45.651Z,19.73
2023-01-08T11:40:42.574Z,20.90
2023-01-08T11:43:30.647Z,21.23
2023-01-08T11:46:23.752Z,21.33
2023-01-08T11:48:55.581Z,22.00
2023-01-08T11:51:52.469Z,21.53
2023-01-08T11:55:11.080Z,21.23
2023-01-08T11:57:49.760Z,21.40
2023-01-08T12:00:49.826Z,21.90
2023-01-08T12:03:47.243Z,22.23
2023-01-08T12:06:46.858Z,21.60
2023-01-08T12:09:33.385Z,22.70
2023-01-08T12:12:41.155Z,22.43
2023-01-08T12:15:55.725Z,23.20
2023-01-08T12:18:43.592Z,23.30
2023-01-08T12:21:33.504Z,22.57
2023-01-08T12:24:21.651Z,22.93
2023-01-08T12:27:48.673Z,21.87
2023-01-08T12:30:26.067Z,21.90
2023-01-08T12:33:05.704Z,20.97
2023-01-08T12:35:40.077Z,20.70
2023-01-08T12:38:32.248Z,21.50
2023-01-08T12:41:20.822Z,20.43
2023-01-08T12:43:59.315Z,20.37
2023-01-08T12:46:41.804Z,19.00
2023-01-08T12:49:18.317Z,20.27
2023-01-08T12:52:12.236Z,20.77
2023-01-08T12:54:58.776Z,20.50
2023-01-08T12:57:38.671Z,19.10
2023-01-08T13:00:33.509Z,19.27
2023-01-08T13:03:12.534Z,18.77
2023-01-08T13:05:46.277Z,19.10
2023-01-08T13:08:37.903Z,18.63
2023-01-08T13:11:06.720Z,18.93
2023-01-08T13:13:37.514Z,19.10
2023-01-08T13:16:19.855Z,18.63
2023-01-08T13:18:58.956Z,19.10
2023-01-08T13:21:59.619Z,18.37
2023-01-08T13:24:46.677Z,18.53
2023-01-08T13:27:31.488Z,18.20
2023-01-08T13:30:02.598Z,19.77
2023-01-08T13:32:52.003Z,19.43
2023-01-08T13:35:34.297Z,20.67
2023-01-08T13:38:19.482Z,18.67
2023-01-08T13:40:50.666Z,17.97
2023-01-08T13:43:40.788Z,18.60
2023-01-08T13:46:19.109Z,17.43
2023-01-08T13:49:06.035Z,18.70
2023-01-08T13:51:54.853Z,17.37
2023-01-08T13:54:45.963Z,17.67
2023-01-08T13:57:26.116Z,17.90
2023-01-08T13:59:59.714Z,17.87
2023-01-08T14:05:39.776Z,18.00
2023-01-08T14:08:22.064Z,17.60
2023-01-08T14:10:51.044Z,18.73
2023-01-08T14:13:29.151Z,18.53
2023-01-08T14:16:01.616Z,18.50
2023-01-08T14:18:32.027Z,19.10
2023-01-08T14:20:59.260Z,19.30
2023-01-08T14:23:36.286Z,18.80
2023-01-08T14:26:10.903Z,18.80
2023-01-08T14:28:39.293Z,26.90
2023-01-08T14:31:22.063Z,29.17
2023-01-08T14:33:53.185Z,27.07
2023-01-08T14:36:21.764Z,36.30
2023-01-08T14:38:52.424Z,25.53
2023-01-08T14:42:01.898Z,22.20
2023-01-08T14:44:38.082Z,20.30
2023-01-08T14:47:19.903Z,21.80
2023-01-08T14:49:54.285Z,20.43
2023-01-08T14:52:23.163Z,21.47
2023-01-08T14:54:56.941Z,21.40
2023-01-08T14:57:28.082Z,21.70
2023-01-08T14:59:59.285Z,22.90
2023-01-08T15:02:40.010Z,21.07
2023-01-08T15:05:26.953Z,21.13
2023-01-08T15:08:31.659Z,20.73
2023-01-08T15:11:16.177Z,20.80
2023-01-08T15:13:44.759Z,21.67
2023-01-08T15:16:18.073Z,22.70
2023-01-08T15:18:48.930Z,24.87
2023-01-08T15:21:23.052Z,24.83
2023-01-08T15:24:00.220Z,23.83
2023-01-08T15:26:28.509Z,22.57
2023-01-08T15:29:02.856Z,23.40
2023-01-08T15:31:40.486Z,26.00
2023-01-08T15:34:11.375Z,32.80
2023-01-08T15:36:42.369Z,30.47
2023-01-08T15:39:11.150Z,28.00
2023-01-08T15:42:00.632Z,22.87
2023-01-08T15:44:28.583Z,23.20
2023-01-08T15:46:56.807Z,21.53
2023-01-08T15:49:28.949Z,21.07
2023-01-08T15:51:56.240Z,21.27
2023-01-08T15:54:28.337Z,21.27
2023-01-08T15:56:58.842Z,20.50
2023-01-08T15:59:28.661Z,26.10
2023-01-08T16:01:58.867Z,26.37
2023-01-08T16:04:27.376Z,28.93
2023-01-08T16:07:00.594Z,21.20
2023-01-08T16:09:28.173Z,22.40
2023-01-08T16:11:59.261Z,25.47
2023-01-08T16:14:30.446Z,23.80
2023-01-08T16:16:59.666Z,24.17
2023-01-08T16:19:29.219Z,23.17
2023-01-08T16:22:00.517Z,24.13
2023-01-08T16:24:31.971Z,21.53
2023-01-08T16:27:02.833Z,24.23
2023-01-08T16:29:33.145Z,24.20
2023-01-08T16:32:01.415Z,23.80
2023-01-08T16:34:34.149Z,21.13
2023-01-08T16:37:02.644Z,20.53
2023-01-08T16:39:34.732Z,20.67
2023-01-08T16:42:04.850Z,20.23
2023-01-08T16:44:39.733Z,18.63
2023-01-08T16:47:10.072Z,18.67
2023-01-08T16:52:22.629Z,16.43
2023-01-08T16:54:52.857Z,17.43
2023-01-08T16:57:21.325Z,16.67
2023-01-08T16:59:49.704Z,16.93
2023-01-08T17:02:26.556Z,16.93
2023-01-08T17:04:56.469Z,16.50
2023-01-08T17:07:27.449Z,17.07
2023-01-08T17:10:00.308Z,17.00
2023-01-08T17:12:33.000Z,16.43
2023-01-08T17:15:01.813Z,15.33
2023-01-08T17:17:33.332Z,15.70
2023-01-08T17:20:03.011Z,15.23
2023-01-08T17:22:32.703Z,15.10
2023-01-08T17:25:04.639Z,14.80
2023-01-08T17:27:35.925Z,14.47
2023-01-08T17:30:05.399Z,15.07
2023-01-08T17:32:33.799Z,16.70
2023-01-08T17:35:03.792Z,16.77
2023-01-08T17:37:34.369Z,16.40
2023-01-08T17:40:02.898Z,16.03
2023-01-08T17:42:30.348Z,15.97
2023-01-08T17:45:06.372Z,16.43
2023-01-08T17:47:35.994Z,16.73
2023-01-08T17:50:10.069Z,17.13
2023-01-08T17:52:41.964Z,17.27
2023-01-08T17:55:10.368Z,17.80
2023-01-08T17:57:40.864Z,16.60
2023-01-08T18:00:12.789Z,16.87
2023-01-08T18:02:40.986Z,16.40
2023-01-08T18:05:13.805Z,16.77
2023-01-08T18:07:43.034Z,16.00
2023-01-08T18:10:13.919Z,16.30
2023-01-08T18:12:51.340Z,15.43
2023-01-08T18:15:20.508Z,16.70
2023-01-08T18:17:50.278Z,16.30
2023-01-08T18:20:22.771Z,16.30
2023-01-08T18:22:51.260Z,15.87
2023-01-08T18:25:20.363Z,15.60
2023-01-08T18:30:31.272Z,14.97
2023-01-08T18:33:00.720Z,15.60
2023-01-08T18:35:28.223Z,18.00
2023-01-08T18:38:00.920Z,19.50
2023-01-08T18:40:30.641Z,18.67
2023-01-08T18:42:59.566Z,17.10
2023-01-08T18:48:18.054Z,16.47
2023-01-08T18:50:48.794Z,16.13
2023-01-08T18:53:17.492Z,16.57
2023-01-08T18:55:48.648Z,17.97
2023-01-08T18:58:19.383Z,18.97
2023-01-08T19:00:50.171Z,22.87
2023-01-08T19:03:18.225Z,23.03
2023-01-08T19:05:49.218Z,25.20
2023-01-08T19:08:17.518Z,25.07
2023-01-08T19:10:48.511Z,25.50
2023-01-08T19:13:20.114Z,27.17
2023-01-08T19:15:48.597Z,30.10
2023-01-08T19:18:19.988Z,31.37
2023-01-08T19:20:51.046Z,34.23
2023-01-08T19:23:20.566Z,30.40
2023-01-08T19:25:48.885Z,27.23
2023-01-08T19:28:19.253Z,24.60
2023-01-08T19:30:56.260Z,22.37
2023-01-08T19:33:26.275Z,21.40
2023-01-08T19:35:55.229Z,18.83
2023-01-08T19:38:26.656Z,19.27
2023-01-08T19:41:00.498Z,19.30
2023-01-08T19:43:44.389Z,19.50
2023-01-08T19:46:16.188Z,23.47
2023-01-08T19:48:46.967Z,27.07
2023-01-08T19:51:18.750Z,28.00
2023-01-08T19:53:55.795Z,23.70
2023-01-08T19:59:06.388Z,27.03
2023-01-08T20:01:34.677Z,26.63
2023-01-08T20:04:05.307Z,25.77
2023-01-08T20:09:28.008Z,29.97
2023-01-08T20:12:00.163Z,37.30
2023-01-08T20:14:28.677Z,28.53
2023-01-08T20:17:01.625Z,27.20
2023-01-08T20:19:30.981Z,29.07
2023-01-08T20:22:00.015Z,23.10
2023-01-08T20:24:28.677Z,26.03
2023-01-08T20:27:02.367Z,22.73
2023-01-08T20:29:30.728Z,21.77
2023-01-08T20:32:00.009Z,19.90
2023-01-08T20:34:28.778Z,18.80
2023-01-08T20:37:00.326Z,18.40
2023-01-08T20:39:29.443Z,17.73
2023-01-08T20:42:04.405Z,23.43
2023-01-08T20:44:36.199Z,25.40
2023-01-08T20:47:06.525Z,23.53
2023-01-08T20:49:36.834Z,26.17
2023-01-08T20:52:05.087Z,22.70
2023-01-08T20:54:36.282Z,20.93
2023-01-08T20:57:14.583Z,24.73
2023-01-08T20:59:45.637Z,20.70
2023-01-08T21:02:13.944Z,22.17
2023-01-08T21:04:41.926Z,23.53
2023-01-08T21:07:09.222Z,25.67
2023-01-08T21:09:36.302Z,25.33
2023-01-08T21:12:05.944Z,24.70
2023-01-08T21:14:33.173Z,21.93
2023-01-08T21:17:03.999Z,20.13
2023-01-08T21:19:33.736Z,20.70
2023-01-08T21:22:01.988Z,23.83
2023-01-08T21:24:31.589Z,23.10
2023-01-08T21:26:59.345Z,21.73
2023-01-08T21:29:29.223Z,25.00
2023-01-08T21:32:00.182Z,23.80
2023-01-08T21:34:31.843Z,25.17
2023-01-08T21:37:02.540Z,28.43
2023-01-08T21:39:36.357Z,30.50
2023-01-08T21:42:25.521Z,30.53
2023-01-08T21:45:12.343Z,29.20
2023-01-08T21:47:41.265Z,28.63
2023-01-08T21:50:19.933Z,29.40
2023-01-08T21:53:09.606Z,29.03
2023-01-08T21:55:37.273Z,28.43
2023-01-08T21:58:05.961Z,28.43
2023-01-08T22:00:34.537Z,28.93
2023-01-08T22:03:01.514Z,28.30
2023-01-08T22:05:28.716Z,29.03
2023-01-08T22:07:59.456Z,28.13
2023-01-08T22:10:28.162Z,26.73
2023-01-08T22:12:55.051Z,26.57
2023-01-08T22:15:25.549Z,25.10
2023-01-08T22:17:53.093Z,26.37
2023-01-08T22:20:23.761Z,24.60
2023-01-08T22:22:51.145Z,24.87
2023-01-08T22:25:19.099Z,23.40
2023-01-08T22:27:48.974Z,24.03
2023-01-08T22:30:19.083Z,22.53
2023-01-08T22:32:49.021Z,21.97
2023-01-08T22:35:19.723Z,22.70
2023-01-08T22:37:47.247Z,22.73
2023-01-08T22:40:18.208Z,23.40
2023-01-08T22:42:45.527Z,22.70
2023-01-08T22:45:14.721Z,23.23
2023-01-08T22:47:44.652Z,23.00
2023-01-08T22:50:15.681Z,22.57
2023-01-08T22:52:43.167Z,23.40
2023-01-08T22:57:53.730Z,22.20
2023-01-08T23:00:23.652Z,21.67
2023-01-08T23:02:51.846Z,21.30
2023-01-08T23:05:21.723Z,22.17
2023-01-08T23:07:50.122Z,21.20
2023-01-08T23:10:20.591Z,21.87
2023-01-08T23:12:50.254Z,21.93
2023-01-08T23:15:21.127Z,21.60
2023-01-08T23:17:52.396Z,22.17
2023-01-08T23:20:23.840Z,21.83
2023-01-08T23:22:53.492Z,21.20
2023-01-08T23:25:24.138Z,21.07
2023-01-08T23:27:51.369Z,20.33
2023-01-08T23:30:19.916Z,20.97
2023-01-08T23:32:49.394Z,20.17
2023-01-08T23:35:17.094Z,20.80
2023-01-08T23:37:45.681Z,20.77
2023-01-08T23:40:15.795Z,20.60
2023-01-08T23:42:44.376Z,20.63
2023-01-08T23:45:14.473Z,19.53
2023-01-08T23:47:51.225Z,19.40
2023-01-08T23:50:20.197Z,19.93
2023-01-08T23:52:50.741Z,19.43
2023-01-08T23:55:19.402Z,17.93
2023-01-08T23:57:49.251Z,19.37
